หน้าหลัก
METAR-TAF:

METAR-TAF

ท่าอากาศยาน :

Marham, อังกฤษ

ละติจูด: 52-39N, ลองจิจูด: 000-34E, ความสูง: 23 ม.

การสังเกตสภาพอากาศปัจจุบัน

รายงานได้ทำขึ้นเมื่อ 44 นาทีที่แล้ว ณ เวลา 04:20 UTC
ลม 6 นอตจากใต้
อุณหภูมิ 6°C
ความชื้น 93%
ความกดอากาศ 1015 hPa
ทัศนวิสัย 10 กม. หรือมากกว่า

METAR: EGYM 130420Z AUTO 19006KT 9999 NCD 06/05 Q1015

เวลา: 06:04 (05:04 UTC)

การพยากรณ์

รายงานได้ทำขึ้นเมื่อ 15 ชั่วโมงและ 14 นาทีที่แล้ว ณ เวลา 13:50 UTC
การพยากรณ์มีผลตั้งแต่วันที่ 12 ณ เวลา 15 UTC จนถึงวันที่ 12 ณ เวลา 18 UTC
ลม 6 นอตจากตะวันตก
ทัศนวิสัย 10 กม. หรือมากกว่า
มีเมฆกระจายเป็นบางส่วนที่ความสูง 3000 ฟุต
ความน่าจะเป็น 30% :
ชั่วคราว
ตั้งแต่วันที่ 12 ณ เวลา 15 UTC จนถึงวันที่ 12 ณ เวลา 18 UTC
ทัศนวิสัย: 7000 ม.
ฝนโปรยปราย,

TAF: EGYM 121350Z 1215/1218 26006KT 9999 SCT030 PROB30 TEMPO 1215/1218 7000 SHRA

สังเกตการณ์สภาพอากาศและพยากรณ์อากาศของสนามบินมากกว่า 4000 แห่ง (รายงาน METAR และ TAF).

สถานีที่ดูได้จะแสดงไว้ด้วยจุดสีเหลืองและสีแดงบนแผนที่.

เลื่อนเมาส์ไปเหนือจุดเพื่อดูชื่อสถานี.

แล้วคลิกเพื่อดูสังเกตการณ์และการพยากรณ์สภาพอากาศ.

ในการเปลี่ยนแผนที่: คลิกที่ปุ่มสีเขียวที่มีกากบาทสีดำเพื่อซูมเข้า; ที่ปุ่มสีเขียวที่มีขีดเพื่อซูมออก; หรือที่ลูกศรสีเขียวเพื่อไปยังแผนที่ที่อยู่ติดกัน.


METAR-TAF: